CheckWX is a tool to help pilots better visualize weather data.  It is not intended as a substitute for an official pre-flight weather briefing.

12:19:31 UTC

HEMM METAR
Mersa Matruh Airport
Mersa Matruh, Egypt
Current

1 hour ago

HEMM 181100Z 32011KT 9999 BKN020 16/10 Q1023 NOSIG
Observed
Feb-18 @ 11:00 UTC
Wind
  • 320° at 11 KTS
Visibility
10,000+ meters
Flight Rules
MVFR
Cloud Levels
  • Broken at 2,000' AGL
Temperature
16°C / 61°F
Dewpoint
10°C / 50°F
Humidity
68%
Altimeter
30.21" Hg
Pressure
1022.92 hPa
Previous

2 hours ago

HEMM 181000Z 32009KT 9999 BKN020 16/10 Q1023 NOSIG
Observed
Feb-18 @ 10:00 UTC
Wind
  • 320° at 9 KTS
Visibility
10,000+ meters
Flight Rules
MVFR
Cloud Levels
  • Broken at 2,000' AGL
Temperature
16°C / 61°F
Dewpoint
10°C / 50°F
Humidity
68%
Altimeter
30.21" Hg
Pressure
1022.92 hPa
Previous

3 hours ago

HEMM 180900Z 35008KT 9999 BKN020 16/10 Q1023 NOSIG
Observed
Feb-18 @ 09:00 UTC
Wind
  • 350° at 8 KTS
Visibility
10,000+ meters
Flight Rules
MVFR
Cloud Levels
  • Broken at 2,000' AGL
Temperature
16°C / 61°F
Dewpoint
10°C / 50°F
Humidity
68%
Altimeter
30.21" Hg
Pressure
1022.92 hPa